Time;durP1;ratioP1;P1;durP2;ratioP2;P2;SDS_P1;SDS_P2;PMS_P1;PMS_P2;Temp;Humidity;BMP_temperature;BMP_pressure;BME280_temperature;BME280_humidity;BME280_pressure;Samples;Min_cycle;Max_cycle;Signal;HPM_P1;HPM_P2
2020/12/05 00:01:20;;;;;;;31.02;13.77;;;;;;;5.23;89.34;93300.84;5106602;28;20031;-49
2020/12/05 00:03:45;;;;;;;41.50;14.18;;;;;;;5.27;89.66;93306.75;5121790;27;20027;-52
2020/12/05 00:06:11;;;;;;;29.08;12.73;;;;;;;5.29;89.33;93313.22;5111998;27;20050;-54
2020/12/05 00:08:36;;;;;;;33.72;14.80;;;;;;;5.34;89.33;93317.88;5112220;27;20031;-54
2020/12/05 00:11:02;;;;;;;31.55;14.82;;;;;;;5.23;89.13;93320.00;5109547;27;20453;-54
2020/12/05 00:13:27;;;;;;;33.40;14.70;;;;;;;5.25;89.12;93326.44;5119118;27;20537;-53
2020/12/05 00:15:53;;;;;;;33.33;15.35;;;;;;;5.26;89.17;93316.25;5113995;27;20043;-54
2020/12/05 00:18:18;;;;;;;31.05;15.40;;;;;;;5.28;88.93;93338.38;5116608;27;20038;-55
2020/12/05 00:20:45;;;;;;;36.25;15.13;;;;;;;5.28;88.89;93332.91;5111163;27;20043;-54
2020/12/05 00:23:12;;;;;;;45.72;14.93;;;;;;;5.16;88.85;93331.53;5107051;27;20035;-55
2020/12/05 00:25:39;;;;;;;32.58;13.10;;;;;;;5.20;89.01;93331.97;5106345;27;20027;-55
2020/12/05 00:28:04;;;;;;;37.47;16.33;;;;;;;5.29;88.61;93345.31;5106129;27;20031;-53
2020/12/05 00:30:30;;;;;;;34.97;16.30;;;;;;;5.31;88.58;93337.31;5113510;27;20031;-55
2020/12/05 00:33:02;;;;;;;41.78;16.58;;;;;;;5.22;88.89;93348.63;5127146;27;20370;-52
2020/12/05 00:35:27;;;;;;;48.05;17.45;;;;;;;5.25;89.52;93347.59;5106563;27;20055;-55
2020/12/05 00:37:54;;;;;;;38.45;16.33;;;;;;;5.33;89.64;93346.50;5126591;27;20027;-55
2020/12/05 00:40:20;;;;;;;36.75;16.10;;;;;;;5.35;89.54;93346.72;5119420;27;20051;-55
2020/12/05 00:42:45;;;;;;;36.00;15.73;;;;;;;5.45;89.33;93358.06;5113127;27;20212;-56
2020/12/05 00:45:11;;;;;;;39.97;16.52;;;;;;;5.45;88.95;93363.53;5107335;27;20030;-55
2020/12/05 00:47:36;;;;;;;35.92;15.40;;;;;;;5.49;89.03;93363.22;5107845;27;20073;-55
2020/12/05 00:50:02;;;;;;;29.75;15.07;;;;;;;5.44;89.07;93366.75;5114508;27;20082;-54
2020/12/05 00:52:28;;;;;;;33.05;13.48;;;;;;;5.45;89.40;93371.75;5105744;27;20035;-53
2020/12/05 00:54:53;;;;;;;35.50;15.70;;;;;;;5.44;89.38;93370.25;5106705;28;20031;-54
2020/12/05 00:57:19;;;;;;;35.22;16.70;;;;;;;5.52;88.83;93379.38;5118038;27;20438;-55
2020/12/05 00:59:44;;;;;;;33.08;17.15;;;;;;;5.53;88.19;93380.84;5126235;27;20045;-53
2020/12/05 01:02:09;;;;;;;33.42;15.30;;;;;;;5.53;87.99;93386.31;5125769;27;20023;-54
2020/12/05 01:04:35;;;;;;;27.35;12.50;;;;;;;5.58;87.29;93385.50;5110485;27;20043;-54
2020/12/05 01:07:00;;;;;;;30.42;14.00;;;;;;;5.60;86.58;93401.41;5113856;27;20138;-56
2020/12/05 01:09:26;;;;;;;40.03;18.33;;;;;;;5.46;86.55;93388.91;5122330;27;20029;-52
2020/12/05 01:11:51;;;;;;;39.47;16.05;;;;;;;5.43;86.38;93387.94;5104843;27;20114;-55
2020/12/05 01:14:16;;;;;;;34.90;14.00;;;;;;;5.36;87.15;93374.84;5110727;27;20031;-53
2020/12/05 01:16:44;;;;;;;32.00;14.75;;;;;;;5.36;87.15;93372.09;5115363;27;20127;-53
2020/12/05 01:19:10;;;;;;;30.98;14.50;;;;;;;5.36;87.50;93381.06;5098575;28;20093;-51
2020/12/05 01:21:35;;;;;;;29.77;12.90;;;;;;;5.35;87.91;93376.84;5109430;27;20470;-55
2020/12/05 01:24:01;;;;;;;30.77;13.57;;;;;;;5.31;88.17;93381.88;5105769;27;20020;-52
2020/12/05 01:26:27;;;;;;;33.67;13.18;;;;;;;5.27;88.46;93384.16;5106492;27;20582;-49
2020/12/05 01:28:52;;;;;;;27.13;13.30;;;;;;;5.27;88.72;93386.91;5123609;27;20042;-55
2020/12/05 01:31:18;;;;;;;30.65;14.55;;;;;;;5.32;88.95;93382.59;5105594;27;20027;-55
2020/12/05 01:33:43;;;;;;;32.40;13.70;;;;;;;5.32;88.87;93382.59;5109822;27;20023;-53
2020/12/05 01:36:09;;;;;;;30.17;13.73;;;;;;;5.34;88.66;93391.03;5126498;27;20031;-53
2020/12/05 01:38:34;;;;;;;26.83;12.80;;;;;;;5.34;88.88;93399.25;5114877;27;20023;-54
2020/12/05 01:41:00;;;;;;;30.23;13.60;;;;;;;5.43;88.60;93390.69;5114872;27;20033;-54
2020/12/05 01:43:27;;;;;;;25.83;13.15;;;;;;;5.37;88.39;93392.75;5114411;27;20355;-55
2020/12/05 01:45:53;;;;;;;31.67;12.50;;;;;;;5.36;88.16;93391.25;5110953;27;20416;-53
2020/12/05 01:48:19;;;;;;;32.17;14.85;;;;;;;5.31;88.69;93392.81;5119121;27;20023;-52
2020/12/05 01:50:46;;;;;;;33.30;13.50;;;;;;;5.36;88.36;93388.53;5104946;27;20022;-54
2020/12/05 01:53:16;;;;;;;33.15;13.18;;;;;;;5.36;88.09;93377.56;5105369;27;20108;-52
2020/12/05 01:55:43;;;;;;;29.65;13.23;;;;;;;5.16;88.31;93362.38;5120826;27;20080;-55
2020/12/05 01:58:08;;;;;;;27.27;11.65;;;;;;;5.23;88.52;93361.06;5092886;27;21980;-53
2020/12/05 02:00:34;;;;;;;28.80;12.90;;;;;;;5.23;88.16;93369.28;5120639;27;20057;-54
2020/12/05 02:02:59;;;;;;;26.50;11.07;;;;;;;5.18;88.60;93367.34;5103808;27;20051;-53
2020/12/05 02:05:43;;;;;;;35.55;12.73;;;;;;;5.07;88.69;93362.75;5105218;27;20117;-54
2020/12/05 02:08:13;;;;;;;34.50;14.07;;;;;;;4.91;89.41;93369.16;5106571;27;20473;-56
2020/12/05 02:10:47;;;;;;;38.88;13.00;;;;;;;5.07;89.45;93378.41;5085210;28;20771;-54
2020/12/05 02:13:26;;;;;;;41.35;12.95;;;;;;;4.96;89.43;93362.16;5090845;27;21562;-54
2020/12/05 02:15:53;;;;;;;32.72;13.18;;;;;;;5.00;89.84;93363.31;5091108;27;20023;-52
2020/12/05 02:18:18;;;;;;;36.22;12.75;;;;;;;5.00;89.81;93346.19;5093731;28;20024;-55
2020/12/05 02:20:45;;;;;;;35.50;12.80;;;;;;;4.97;90.12;93356.16;5086903;28;20027;-56
2020/12/05 02:23:12;;;;;;;30.92;12.73;;;;;;;4.89;89.87;93338.09;5097647;27;20023;-55
2020/12/05 02:25:41;;;;;;;37.60;13.50;;;;;;;4.95;90.04;93346.97;5110566;27;20027;-54
2020/12/05 02:28:07;;;;;;;37.38;13.32;;;;;;;5.01;90.11;93364.06;5118253;27;20035;-56
2020/12/05 02:30:34;;;;;;;33.85;11.98;;;;;;;5.09;89.25;93365.69;5086259;28;20043;-54
2020/12/05 02:33:00;;;;;;;28.40;10.98;;;;;;;4.96;89.48;93360.13;5112546;27;20077;-51
2020/12/05 02:35:26;;;;;;;29.38;10.25;;;;;;;5.01;89.43;93361.31;5107550;27;20028;-55
2020/12/05 02:37:53;;;;;;;27.95;10.85;;;;;;;4.90;89.37;93364.19;5108261;27;20027;-55
2020/12/05 02:40:19;;;;;;;26.83;10.85;;;;;;;4.85;89.77;93370.47;5093605;27;20023;-54
2020/12/05 02:42:44;;;;;;;27.35;9.70;;;;;;;4.84;90.35;93379.91;5099919;27;20039;-52
2020/12/05 02:45:10;;;;;;;28.95;13.00;;;;;;;4.76;90.66;93376.28;5102964;27;20018;-53
2020/12/05 02:47:35;;;;;;;34.17;9.90;;;;;;;4.83;90.45;93383.91;5111578;27;20444;-53
2020/12/05 02:50:01;;;;;;;27.80;11.15;;;;;;;4.85;90.32;93384.16;5112336;27;20362;-55
2020/12/05 02:52:26;;;;;;;19.92;9.73;;;;;;;4.93;90.22;93374.84;5120866;27;20050;-55
2020/12/05 02:54:52;;;;;;;28.85;11.52;;;;;;;4.98;90.13;93376.03;5120946;27;20031;-53
2020/12/05 02:57:17;;;;;;;22.88;11.40;;;;;;;4.98;89.97;93381.53;5110731;27;20031;-54
2020/12/05 02:59:42;;;;;;;23.20;10.63;;;;;;;4.94;90.23;93376.31;5112741;27;20030;-55
2020/12/05 03:02:08;;;;;;;31.60;13.65;;;;;;;4.97;90.22;93377.28;5104187;28;20026;-52
2020/12/05 03:04:33;;;;;;;35.92;14.38;;;;;;;5.03;90.15;93378.72;5113424;28;20568;-56
2020/12/05 03:06:59;;;;;;;32.88;14.13;;;;;;;4.99;90.34;93380.25;5119819;28;20100;-55
2020/12/05 03:09:24;;;;;;;24.90;12.38;;;;;;;5.01;90.34;93386.69;5117716;28;20019;-55
2020/12/05 03:11:49;;;;;;;25.13;10.32;;;;;;;5.03;89.82;93389.66;5109217;28;20015;-56
2020/12/05 03:14:15;;;;;;;26.23;11.77;;;;;;;5.11;89.76;93387.09;5095151;28;20466;-55
2020/12/05 03:16:40;;;;;;;22.38;11.23;;;;;;;5.14;89.25;93383.31;5121812;28;20035;-55
2020/12/05 03:19:06;;;;;;;25.42;11.45;;;;;;;5.19;88.76;93386.00;5105806;28;20047;-52
2020/12/05 03:21:31;;;;;;;26.23;10.07;;;;;;;5.15;88.50;93373.84;5111980;28;20024;-53
2020/12/05 03:23:57;;;;;;;26.20;11.52;;;;;;;5.07;88.51;93368.22;5120331;28;20043;-55
2020/12/05 03:26:22;;;;;;;26.58;10.77;;;;;;;5.12;88.76;93367.41;5103502;28;20716;-55
2020/12/05 03:28:47;;;;;;;30.50;11.07;;;;;;;5.01;89.23;93380.47;5103601;28;20031;-55
2020/12/05 03:31:31;;;;;;;21.42;11.20;;;;;;;4.97;89.75;93375.28;5107221;28;20115;-55
2020/12/05 03:33:58;;;;;;;22.10;11.63;;;;;;;4.99;89.74;93385.72;5106369;28;20015;-54
2020/12/05 03:36:23;;;;;;;27.23;11.10;;;;;;;5.00;89.97;93384.47;5116240;28;20469;-54
2020/12/05 03:38:53;;;;;;;21.23;10.60;;;;;;;5.01;89.95;93385.94;5111985;27;20037;-56
2020/12/05 03:41:18;;;;;;;25.55;10.55;;;;;;;5.00;90.19;93387.94;5108008;28;20028;-51
2020/12/05 03:43:43;;;;;;;26.05;10.77;;;;;;;4.95;90.03;93377.06;5111022;27;20092;-52
2020/12/05 03:46:09;;;;;;;21.17;10.30;;;;;;;4.95;90.14;93368.84;5128350;27;20027;-51
2020/12/05 03:48:34;;;;;;;16.95;9.30;;;;;;;4.98;89.94;93370.56;5114182;27;20394;-53
2020/12/05 03:51:00;;;;;;;25.33;11.75;;;;;;;4.88;90.10;93370.16;5115302;27;20397;-53
2020/12/05 03:53:26;;;;;;;26.83;12.80;;;;;;;5.00;89.99;93368.06;5106564;27;20032;-51
2020/12/05 03:55:53;;;;;;;22.90;9.50;;;;;;;4.88;90.08;93369.44;5107001;27;20019;-54
2020/12/05 03:58:18;;;;;;;24.42;10.23;;;;;;;4.87;90.21;93378.91;5106835;27;20031;-55
2020/12/05 04:00:43;;;;;;;20.33;8.95;;;;;;;4.84;89.89;93368.97;5120366;27;20088;-51
2020/12/05 04:03:09;;;;;;;18.67;7.93;;;;;;;4.86;89.87;93382.88;5106804;27;20023;-54
2020/12/05 04:05:34;;;;;;;20.92;9.05;;;;;;;4.84;89.94;93377.19;5112677;27;20478;-53
2020/12/05 04:08:00;;;;;;;22.05;11.02;;;;;;;4.73;90.11;93386.25;5117767;27;20054;-52
2020/12/05 04:10:25;;;;;;;28.08;9.73;;;;;;;4.80;90.27;93382.94;5123489;27;20492;-53
2020/12/05 04:12:50;;;;;;;30.75;10.52;;;;;;;4.72;90.20;93382.00;5122877;27;20035;-54
2020/12/05 04:15:16;;;;;;;29.88;12.82;;;;;;;4.66;90.47;93391.56;5114347;27;20027;-55
2020/12/05 04:17:41;;;;;;;18.00;10.30;;;;;;;4.77;90.50;93396.88;5107689;27;20019;-56
2020/12/05 04:20:07;;;;;;;23.77;10.52;;;;;;;4.86;90.24;93394.56;5113834;27;20043;-52
2020/12/05 04:22:32;;;;;;;17.80;9.18;;;;;;;4.76;90.03;93395.41;5122288;27;20420;-54
2020/12/05 04:24:57;;;;;;;22.17;10.20;;;;;;;4.70;90.51;93400.22;5123924;27;20114;-51
2020/12/05 04:27:23;;;;;;;19.95;9.40;;;;;;;4.83;90.26;93405.81;5118752;27;20031;-54
2020/12/05 04:29:50;;;;;;;22.48;11.25;;;;;;;4.92;90.03;93403.44;5113942;27;20481;-54
2020/12/05 04:32:16;;;;;;;18.45;10.25;;;;;;;4.94;89.88;93397.44;5105915;27;20031;-51
2020/12/05 04:34:42;;;;;;;22.08;9.85;;;;;;;4.99;89.45;93400.16;5119489;27;20031;-53
2020/12/05 04:37:07;;;;;;;19.73;10.27;;;;;;;5.04;89.34;93396.63;5114199;27;20027;-54
2020/12/05 04:39:33;;;;;;;19.98;11.15;;;;;;;5.11;89.06;93395.31;5105628;27;20034;-55
2020/12/05 04:41:58;;;;;;;20.50;10.23;;;;;;;5.17;88.75;93387.75;5105522;27;20027;-52
2020/12/05 04:44:24;;;;;;;24.50;11.45;;;;;;;5.16;88.75;93397.97;5113921;27;20024;-55
2020/12/05 04:46:49;;;;;;;27.58;11.75;;;;;;;5.26;88.61;93404.56;5115782;27;20080;-52
2020/12/05 04:49:16;;;;;;;22.35;10.32;;;;;;;5.33;88.32;93403.25;5114813;27;20059;-53
2020/12/05 04:51:46;;;;;;;28.00;12.73;;;;;;;5.33;88.36;93414.19;5109780;27;20052;-53
2020/12/05 04:54:11;;;;;;;28.85;12.20;;;;;;;5.36;88.24;93415.91;5089069;28;20469;-54
2020/12/05 04:56:38;;;;;;;23.17;11.95;;;;;;;5.45;88.19;93412.81;5088297;27;20043;-54
2020/12/05 04:59:09;;;;;;;20.52;10.00;;;;;;;5.56;87.86;93417.41;5106778;27;20036;-55
2020/12/05 05:01:38;;;;;;;21.58;11.68;;;;;;;5.55;87.65;93411.19;5123028;27;20030;-53
2020/12/05 05:04:05;;;;;;;26.67;11.70;;;;;;;5.49;87.98;93418.00;5106640;27;20036;-53
2020/12/05 05:06:30;;;;;;;23.02;12.57;;;;;;;5.42;88.04;93418.56;5123771;27;20027;-55
2020/12/05 05:08:56;;;;;;;28.55;12.60;;;;;;;5.49;88.21;93418.00;5108575;27;20033;-55
2020/12/05 05:11:23;;;;;;;23.70;11.18;;;;;;;5.42;88.03;93421.31;5122479;27;20019;-53
2020/12/05 05:13:55;;;;;;;33.38;18.02;;;;;;;5.46;88.48;93436.19;5106296;27;20034;-54
2020/12/05 05:16:23;;;;;;;19.88;11.48;;;;;;;5.57;88.20;93429.81;5123559;27;20401;-55
2020/12/05 05:18:49;;;;;;;21.67;11.40;;;;;;;5.44;88.35;93429.75;5097621;27;20409;-52
2020/12/05 05:21:33;;;;;;;22.00;10.85;;;;;;;5.55;88.39;93426.88;5106503;27;20035;-54
2020/12/05 05:24:01;;;;;;;20.88;11.27;;;;;;;5.58;88.08;93429.34;5106225;28;20059;-50
2020/12/05 05:26:26;;;;;;;22.42;10.75;;;;;;;5.56;88.00;93431.84;5108260;27;20398;-53
2020/12/05 05:28:52;;;;;;;21.83;10.50;;;;;;;5.52;87.95;93442.34;5096242;28;20027;-56
2020/12/05 05:33:47;;;;;;;26.20;12.10;;;;;;;5.48;88.06;93439.16;5106046;27;20476;-55
2020/12/05 05:36:28;;;;;;;19.95;9.70;;;;;;;5.53;87.95;93446.56;5125978;27;20076;-55
2020/12/05 05:38:59;;;;;;;18.38;9.70;;;;;;;5.52;87.67;93453.31;5107071;27;20050;-56
2020/12/05 05:41:25;;;;;;;20.42;10.43;;;;;;;5.56;87.18;93445.53;5105366;28;20119;-54
2020/12/05 05:43:54;;;;;;;19.40;10.00;;;;;;;5.62;87.03;93445.47;5107761;27;20521;-56
2020/12/05 05:46:24;;;;;;;18.98;10.32;;;;;;;5.70;86.45;93444.34;5123973;27;20037;-54
2020/12/05 05:48:51;;;;;;;18.65;9.23;;;;;;;5.64;86.58;93448.41;5126580;27;20033;-56
2020/12/05 05:51:16;;;;;;;15.88;8.63;;;;;;;5.68;86.11;93449.63;5126751;27;20080;-56
2020/12/05 05:53:42;;;;;;;16.42;9.05;;;;;;;5.60;86.20;93443.25;5125659;27;20027;-55
2020/12/05 05:56:11;;;;;;;22.55;9.63;;;;;;;5.62;86.24;93442.72;5125729;27;20027;-56
2020/12/05 05:58:37;;;;;;;19.05;10.23;;;;;;;5.54;86.66;93447.31;5113291;27;20106;-55
2020/12/05 06:01:02;;;;;;;22.55;9.77;;;;;;;5.56;87.08;93447.53;5110254;27;20088;-56
2020/12/05 06:03:28;;;;;;;22.80;9.75;;;;;;;5.47;87.65;93442.41;5124377;27;20020;-53
2020/12/05 06:05:56;;;;;;;24.15;10.50;;;;;;;5.55;87.89;93438.56;5109913;27;20421;-52
2020/12/05 06:08:26;;;;;;;23.35;12.25;;;;;;;5.38;88.35;93457.19;5105129;27;20572;-53
2020/12/05 06:10:53;;;;;;;14.27;8.02;;;;;;;5.41;88.74;93460.91;5106052;27;20114;-55
2020/12/05 06:13:19;;;;;;;23.30;12.18;;;;;;;5.38;89.03;93459.94;5104728;27;20011;-55
2020/12/05 06:15:48;;;;;;;21.85;11.88;;;;;;;5.33;89.34;93472.41;5080225;28;20038;-55
2020/12/05 06:18:14;;;;;;;20.23;10.55;;;;;;;5.41;89.07;93472.59;5082962;27;20062;-53
2020/12/05 06:20:43;;;;;;;20.95;10.05;;;;;;;5.37;89.10;93466.69;5112027;27;20062;-53
2020/12/05 06:23:13;;;;;;;22.80;9.63;;;;;;;5.44;88.99;93465.34;5100208;27;20923;-54
2020/12/05 06:25:40;;;;;;;19.00;10.20;;;;;;;5.38;88.89;93476.34;5083422;28;20092;-56
2020/12/05 06:28:06;;;;;;;27.00;12.02;;;;;;;5.46;88.78;93479.28;5081696;28;20355;-55
2020/12/05 06:30:32;;;;;;;23.88;12.38;;;;;;;5.39;88.71;93467.63;5098739;28;20015;-55
2020/12/05 06:32:58;;;;;;;17.60;10.90;;;;;;;5.47;88.66;93475.25;5087129;28;20379;-55
2020/12/05 06:35:23;;;;;;;38.05;10.85;;;;;;;5.47;88.42;93473.28;5109065;27;20038;-55
2020/12/05 06:37:50;;;;;;;26.90;12.68;;;;;;;5.42;88.46;93479.53;5110515;27;20026;-54
2020/12/05 06:40:16;;;;;;;21.65;10.40;;;;;;;5.52;87.78;93477.97;5108015;27;20052;-55
2020/12/05 06:42:43;;;;;;;16.80;10.00;;;;;;;5.50;87.60;93485.91;5117820;27;20019;-54
2020/12/05 06:45:28;;;;;;;21.80;11.05;;;;;;;5.52;87.13;93491.66;5118138;27;20467;-50
2020/12/05 06:48:09;;;;;;;19.33;9.48;;;;;;;5.56;87.32;93492.09;5112786;27;20039;-56
2020/12/05 06:50:34;;;;;;;17.30;9.88;;;;;;;5.66;87.29;93487.00;5113490;27;20024;-55
2020/12/05 06:53:00;;;;;;;18.08;10.10;;;;;;;5.55;87.29;93498.06;5099381;28;20508;-56
2020/12/05 06:55:33;;;;;;;19.13;9.60;;;;;;;5.61;87.78;93502.22;5107629;27;20035;-55
2020/12/05 06:58:05;;;;;;;22.45;12.52;;;;;;;5.70;87.34;93507.34;5102004;27;20939;-55
2020/12/05 07:00:38;;;;;;;15.35;9.98;;;;;;;5.82;87.38;93503.25;5102133;27;20023;-56
2020/12/05 07:03:08;;;;;;;19.42;10.70;;;;;;;5.84;86.85;93497.28;5103543;27;20019;-54
2020/12/05 07:05:43;;;;;;;18.85;9.95;;;;;;;5.79;87.02;93495.31;5112323;27;20023;-54
2020/12/05 07:08:35;;;;;;;18.92;9.50;;;;;;;5.82;87.29;93508.72;5099547;28;20093;-56
2020/12/05 07:11:21;;;;;;;30.92;13.15;;;;;;;5.89;87.08;93505.41;5104639;28;20732;-53
2020/12/05 07:13:51;;;;;;;24.83;12.30;;;;;;;5.90;86.75;93509.66;5100187;28;20019;-54
2020/12/05 07:16:21;;;;;;;21.63;10.10;;;;;;;6.01;86.50;93508.75;5111346;27;20035;-53
2020/12/05 07:18:49;;;;;;;16.42;9.68;;;;;;;5.97;86.45;93508.31;5114530;27;20043;-55
2020/12/05 07:21:15;;;;;;;18.92;9.85;;;;;;;6.05;85.93;93518.19;5120536;27;20049;-53
2020/12/05 07:23:41;;;;;;;16.77;9.10;;;;;;;6.02;85.97;93513.72;5107505;27;20367;-55
2020/12/05 07:26:07;;;;;;;21.48;10.93;;;;;;;6.06;86.04;93516.19;5101786;27;20015;-55
2020/12/05 07:28:33;;;;;;;17.50;9.68;;;;;;;6.16;85.20;93516.53;5101425;27;20099;-54
2020/12/05 07:30:59;;;;;;;20.02;9.48;;;;;;;6.08;84.49;93500.72;5081508;28;20024;-55
2020/12/05 07:33:24;;;;;;;16.52;10.63;;;;;;;6.00;85.48;93516.25;5098989;27;20016;-55
2020/12/05 07:36:07;;;;;;;22.20;9.38;;;;;;;6.06;85.21;93518.91;5102287;27;20027;-54
2020/12/05 07:38:38;;;;;;;14.95;8.68;;;;;;;6.11;85.33;93516.09;5084117;28;20024;-55
2020/12/05 07:41:15;;;;;;;19.40;9.80;;;;;;;6.03;85.82;93519.94;5103062;27;20023;-54
2020/12/05 07:43:41;;;;;;;17.25;9.25;;;;;;;6.03;86.08;93528.91;5101503;27;20020;-52
2020/12/05 07:46:09;;;;;;;13.40;8.07;;;;;;;6.11;85.86;93529.81;5104069;27;20015;-54
2020/12/05 07:48:35;;;;;;;19.13;9.05;;;;;;;6.17;85.81;93520.78;5101509;27;20030;-53
2020/12/05 07:51:01;;;;;;;16.27;8.98;;;;;;;6.32;85.41;93527.31;5102801;27;20028;-51
2020/12/05 07:53:31;;;;;;;14.73;9.25;;;;;;;6.41;85.05;93534.41;5102410;27;20045;-52
2020/12/05 07:55:58;;;;;;;19.00;11.35;;;;;;;6.55;84.97;93533.19;5100401;27;20031;-54
2020/12/05 07:58:24;;;;;;;17.73;8.80;;;;;;;6.63;84.47;93536.81;5083177;27;20072;-54
2020/12/05 08:00:57;;;;;;;16.15;9.45;;;;;;;6.79;84.05;93538.59;5103082;27;20027;-54
2020/12/05 08:03:58;;;;;;;13.52;8.30;;;;;;;6.73;84.20;93549.66;5102320;27;20088;-55
2020/12/05 08:06:40;;;;;;;13.90;6.78;;;;;;;6.78;83.93;93537.09;5031261;28;20535;-52
2020/12/05 08:09:05;;;;;;;25.27;11.38;;;;;;;6.82;83.32;93551.28;5103480;27;20114;-56
2020/12/05 08:11:39;;;;;;;18.50;9.80;;;;;;;6.70;83.15;93547.19;5084742;28;20020;-55
2020/12/05 08:14:04;;;;;;;15.27;9.10;;;;;;;6.67;83.86;93548.25;5082985;27;20020;-52
2020/12/05 08:16:30;;;;;;;16.58;8.32;;;;;;;6.65;84.05;93540.53;5084661;27;20055;-53
2020/12/05 08:18:55;;;;;;;16.38;8.80;;;;;;;6.65;84.21;93553.50;5086143;27;20552;-53
2020/12/05 08:21:22;;;;;;;14.93;8.77;;;;;;;6.58;84.77;93556.84;5107508;27;20527;-54
2020/12/05 08:23:47;;;;;;;17.25;9.63;;;;;;;6.61;85.36;93555.81;5084730;28;20031;-56
2020/12/05 08:26:14;;;;;;;15.55;9.05;;;;;;;6.61;85.79;93553.06;5102145;27;20027;-54
2020/12/05 08:28:42;;;;;;;19.52;9.00;;;;;;;6.76;85.59;93550.59;5081089;28;20294;-55
2020/12/05 08:31:09;;;;;;;17.33;9.50;;;;;;;6.77;85.37;93552.09;5098420;27;20031;-55
2020/12/05 08:34:01;;;;;;;18.02;9.93;;;;;;;6.77;85.75;93550.09;5103323;27;20507;-52
2020/12/05 08:36:37;;;;;;;22.95;11.07;;;;;;;6.88;85.39;93555.41;5095202;27;20047;-56
2020/12/05 08:39:10;;;;;;;22.45;10.57;;;;;;;6.94;85.13;93560.06;5102916;27;20054;-56
2020/12/05 08:41:47;;;;;;;18.67;9.80;;;;;;;7.03;84.72;93574.16;5098017;27;20027;-56
2020/12/05 08:44:14;;;;;;;17.65;8.93;;;;;;;7.00;84.71;93564.19;5098837;27;20024;-55
2020/12/05 08:46:40;;;;;;;20.40;9.32;;;;;;;6.81;85.04;93558.00;5099559;27;20032;-55
2020/12/05 08:49:20;;;;;;;23.67;12.18;;;;;;;7.02;85.02;93566.44;5105542;27;20526;-54
2020/12/05 08:51:51;;;;;;;14.60;9.13;;;;;;;7.16;83.97;93563.22;5105171;27;20028;-55
2020/12/05 08:54:17;;;;;;;16.00;9.85;;;;;;;7.22;83.26;93577.59;5100237;27;20512;-55
2020/12/05 08:56:43;;;;;;;18.00;8.55;;;;;;;7.13;83.45;93561.50;5100237;27;20027;-55
2020/12/05 08:59:09;;;;;;;18.20;8.65;;;;;;;7.20;83.76;93566.38;5099218;27;20023;-55
2020/12/05 09:01:39;;;;;;;19.20;9.50;;;;;;;7.26;83.24;93563.53;5101052;27;20020;-53
2020/12/05 09:04:04;;;;;;;18.35;9.90;;;;;;;7.23;83.49;93573.59;5101603;27;20685;-53
2020/12/05 09:06:30;;;;;;;20.80;8.90;;;;;;;7.21;83.68;93572.63;5098353;27;20031;-57
2020/12/05 09:08:55;;;;;;;17.55;9.40;;;;;;;7.14;84.01;93587.72;5100874;27;20110;-52
2020/12/05 09:11:22;;;;;;;18.40;9.55;;;;;;;7.11;84.38;93577.00;5099531;27;20019;-54
2020/12/05 09:13:48;;;;;;;17.15;10.48;;;;;;;7.05;84.95;93574.38;5097447;27;20169;-52
2020/12/05 09:16:14;;;;;;;15.48;8.90;;;;;;;7.16;84.34;93568.69;5100810;27;20123;-54
2020/12/05 09:18:44;;;;;;;23.98;11.15;;;;;;;7.18;84.33;93573.66;5099723;27;20272;-54
2020/12/05 09:21:20;;;;;;;16.20;8.43;;;;;;;7.24;84.50;93577.81;5101665;27;20031;-51
2020/12/05 09:23:58;;;;;;;18.63;11.68;;;;;;;7.22;84.74;93579.59;5098381;27;20036;-54
2020/12/05 09:26:23;;;;;;;15.90;8.68;;;;;;;7.41;83.73;93583.75;5101572;27;20109;-54
2020/12/05 09:28:48;;;;;;;19.20;9.68;;;;;;;7.43;83.47;93578.47;5101588;27;20031;-54
2020/12/05 09:31:14;;;;;;;19.00;10.60;;;;;;;7.39;83.83;93575.31;5101057;27;20023;-51
2020/12/05 09:33:43;;;;;;;19.13;9.23;;;;;;;7.54;83.52;93580.28;5095633;27;20027;-54
2020/12/05 10:13:08;;;;;;;22.67;11.05;;;;;;;7.72;82.29;93582.22;5099383;27;20039;-52
2020/12/05 10:15:33;;;;;;;21.20;12.68;;;;;;;7.58;82.49;93597.94;5099817;27;20027;-56
2020/12/05 10:18:00;;;;;;;25.23;13.63;;;;;;;7.62;82.77;93594.91;5097575;27;20042;-52
2020/12/05 10:20:27;;;;;;;18.00;9.85;;;;;;;7.58;83.37;93600.69;5100838;27;20494;-52
2020/12/05 10:22:52;;;;;;;16.95;10.55;;;;;;;7.65;83.28;93593.84;5098118;27;20044;-54
2020/12/05 10:25:18;;;;;;;19.95;10.30;;;;;;;7.76;83.02;93587.41;5105666;27;20047;-55
2020/12/05 10:27:44;;;;;;;22.60;11.13;;;;;;;7.87;82.41;93585.19;5099665;27;20426;-54
2020/12/05 10:30:09;;;;;;;24.25;12.77;;;;;;;7.88;82.24;93585.94;5102557;27;20463;-56
2020/12/05 10:32:35;;;;;;;21.30;11.20;;;;;;;7.94;82.15;93581.06;5108412;27;20030;-53
2020/12/05 10:35:00;;;;;;;20.17;11.27;;;;;;;7.97;81.80;93583.50;5100372;27;20034;-55
2020/12/05 10:37:26;;;;;;;16.05;9.25;;;;;;;8.02;81.67;93576.41;5102799;27;20030;-55
2020/12/05 10:39:51;;;;;;;20.48;11.13;;;;;;;8.11;81.20;93578.75;5099907;28;20058;-55
2020/12/05 10:42:16;;;;;;;23.02;10.70;;;;;;;8.22;80.20;93584.03;5111431;27;20445;-53
2020/12/05 10:44:42;;;;;;;18.67;10.23;;;;;;;8.09;80.72;93576.53;5097080;27;20051;-54
2020/12/05 10:47:07;;;;;;;20.88;9.82;;;;;;;8.06;80.76;93579.59;5092712;27;20037;-54
2020/12/05 10:49:33;;;;;;;21.25;9.52;;;;;;;7.88;81.63;93588.69;5110941;27;20022;-56
2020/12/05 10:51:58;;;;;;;15.20;9.65;;;;;;;7.68;82.51;93573.56;5109517;27;20477;-56
2020/12/05 10:54:24;;;;;;;21.98;10.50;;;;;;;7.64;83.41;93579.34;5114136;27;20023;-54
2020/12/05 10:56:50;;;;;;;23.70;12.15;;;;;;;7.72;83.13;93579.47;5103014;27;20034;-54
2020/12/05 10:59:15;;;;;;;18.13;9.55;;;;;;;7.94;82.29;93570.09;5101425;27;20055;-56
2020/12/05 11:01:41;;;;;;;18.80;9.98;;;;;;;8.05;82.06;93569.88;5107152;27;20569;-51
2020/12/05 11:04:06;;;;;;;19.30;10.20;;;;;;;8.20;81.13;93570.06;5113328;27;20027;-54
2020/12/05 11:06:32;;;;;;;16.77;10.35;;;;;;;8.35;80.60;93564.78;5108187;27;20046;-52
2020/12/05 11:08:57;;;;;;;16.77;8.55;;;;;;;8.24;80.74;93562.25;5111087;27;20043;-54
2020/12/05 11:11:23;;;;;;;16.90;9.20;;;;;;;8.17;80.80;93560.88;5104428;28;20031;-55
2020/12/05 11:13:49;;;;;;;17.52;8.52;;;;;;;8.15;81.23;93566.16;5109383;28;20870;-54
2020/12/05 11:16:18;;;;;;;19.50;9.57;;;;;;;8.10;81.23;93569.03;5100027;28;20110;-52
2020/12/05 11:18:44;;;;;;;18.33;10.00;;;;;;;8.20;81.16;93565.31;5116061;28;20307;-55
2020/12/05 11:21:10;;;;;;;17.50;10.13;;;;;;;8.14;80.94;93561.19;5114638;28;20253;-53
2020/12/05 11:23:35;;;;;;;18.40;10.45;;;;;;;8.14;81.09;93561.91;5113693;28;20023;-54
2020/12/05 11:26:00;;;;;;;16.65;9.80;;;;;;;7.86;81.66;93561.00;5109643;28;20033;-54
2020/12/05 11:28:26;;;;;;;19.80;10.73;;;;;;;7.80;82.33;93552.84;5102919;28;20041;-56
2020/12/05 11:30:51;;;;;;;14.00;8.02;;;;;;;7.91;82.41;93558.13;5101172;28;20105;-52
2020/12/05 11:33:17;;;;;;;19.30;10.48;;;;;;;8.04;nan;93549.88;5104936;28;20019;-56
2020/12/05 11:35:43;;;;;;;28.15;12.13;;;;;;;8.09;81.39;93557.28;5103104;28;20102;-55
2020/12/05 11:38:08;;;;;;;38.78;16.92;;;;;;;8.03;82.11;93551.16;5107186;28;20428;-56
2020/12/05 11:40:33;;;;;;;28.77;13.02;;;;;;;8.10;81.34;93542.25;5107633;28;20393;-54
2020/12/05 11:42:59;;;;;;;25.70;13.52;;;;;;;8.00;81.32;93537.72;5105042;28;20118;-55
2020/12/05 11:45:24;;;;;;;28.48;13.80;;;;;;;7.88;81.94;93539.97;5113775;28;20023;-54
2020/12/05 11:47:50;;;;;;;19.70;11.65;;;;;;;7.77;82.73;93542.16;5111563;28;20053;-49
2020/12/05 11:50:15;;;;;;;16.27;7.80;;;;;;;7.81;82.80;93531.59;5114100;28;20027;-51
2020/12/05 11:52:41;;;;;;;13.40;7.65;;;;;;;7.91;82.93;93524.41;5103010;28;20113;-54
2020/12/05 11:55:06;;;;;;;21.20;11.93;;;;;;;7.85;82.35;93529.28;5107992;28;20027;-54
2020/12/05 11:57:32;;;;;;;16.52;8.95;;;;;;;7.84;82.93;93528.53;5110385;28;20073;-53
2020/12/05 11:59:57;;;;;;;18.35;9.07;;;;;;;7.83;82.69;93527.06;5107429;27;20401;-54
2020/12/05 12:02:23;;;;;;;18.00;8.98;;;;;;;7.81;82.61;93535.09;5115747;27;20484;-55
2020/12/05 12:04:49;;;;;;;19.55;8.95;;;;;;;7.61;83.33;93533.72;5111045;27;20045;-56
2020/12/05 12:07:15;;;;;;;16.50;9.13;;;;;;;7.63;83.29;93539.41;5111222;27;20138;-55
2020/12/05 12:09:41;;;;;;;20.83;9.60;;;;;;;7.59;83.81;93544.50;5105990;27;20536;-54